Time;durP1;ratioP1;P1;durP2;ratioP2;P2;SDS_P1;SDS_P2;PMS_P1;PMS_P2;Temp;Humidity;BMP_temperature;BMP_pressure;BME280_temperature;BME280_humidity;BME280_pressure;Samples;Min_cycle;Max_cycle;Signal;HPM_P1;HPM_P2
2022/06/21 00:00:48;;;;;;;5.10;2.10;;;19.40;72.00;;;;;;5052773;28;20108;-79
2022/06/21 00:03:18;;;;;;;3.70;1.70;;;19.40;72.00;;;;;;5051311;28;20024;-77
2022/06/21 00:05:46;;;;;;;5.43;2.05;;;19.40;72.40;;;;;;5051198;28;20033;-79
2022/06/21 00:08:21;;;;;;;5.43;2.13;;;19.50;72.30;;;;;;5052774;28;20025;-77
2022/06/21 00:10:47;;;;;;;4.35;1.80;;;19.50;72.40;;;;;;5051684;28;20025;-76
2022/06/21 00:13:19;;;;;;;4.55;1.80;;;19.50;72.10;;;;;;5051316;28;20485;-79
2022/06/21 00:15:46;;;;;;;5.15;1.70;;;19.50;71.20;;;;;;5051103;28;20025;-78
2022/06/21 00:18:15;;;;;;;3.97;1.80;;;19.50;70.90;;;;;;5052600;28;20032;-80
2022/06/21 00:20:41;;;;;;;4.47;1.77;;;19.50;70.90;;;;;;5051289;28;20024;-78
2022/06/21 00:23:14;;;;;;;5.05;2.00;;;19.40;70.80;;;;;;5051474;28;20024;-78
2022/06/21 00:25:41;;;;;;;5.47;2.10;;;19.40;71.10;;;;;;5064605;28;20028;-77
2022/06/21 00:28:06;;;;;;;5.70;1.67;;;19.40;70.90;;;;;;5072136;28;20031;-79
2022/06/21 00:30:32;;;;;;;5.38;2.00;;;19.40;70.80;;;;;;5072315;28;20024;-78
2022/06/21 00:32:58;;;;;;;5.22;2.15;;;19.40;71.00;;;;;;5072397;28;20155;-77
2022/06/21 00:35:25;;;;;;;5.15;1.90;;;19.30;70.70;;;;;;5070868;28;20032;-77
2022/06/21 00:37:51;;;;;;;4.55;1.92;;;19.30;70.70;;;;;;5072000;28;20040;-78
2022/06/21 00:40:19;;;;;;;5.07;1.90;;;19.30;71.00;;;;;;5071305;28;20025;-79
2022/06/21 00:42:51;;;;;;;4.45;1.70;;;19.30;71.00;;;;;;5072141;28;20027;-78
2022/06/21 00:45:29;;;;;;;5.85;2.08;;;19.30;70.80;;;;;;5070760;28;20021;-78
2022/06/21 00:48:00;;;;;;;4.82;2.00;;;19.30;70.60;;;;;;5072543;28;20021;-78
2022/06/21 00:50:25;;;;;;;5.90;2.00;;;19.20;70.30;;;;;;5072274;28;20024;-79
2022/06/21 00:53:28;;;;;;;4.00;1.70;;;19.20;70.60;;;;;;5072403;28;20183;-76
2022/06/21 00:56:01;;;;;;;5.55;2.15;;;19.20;70.80;;;;;;5070716;28;20480;-78
2022/06/21 00:58:30;;;;;;;3.50;1.80;;;19.20;71.10;;;;;;5071366;28;20036;-78
2022/06/21 01:01:17;;;;;;;5.50;2.15;;;19.20;71.10;;;;;;5070806;28;20111;-78
2022/06/21 01:03:58;;;;;;;3.65;1.83;;;19.30;71.40;;;;;;5070714;28;20032;-81
2022/06/21 01:06:27;;;;;;;;;;;19.30;71.40;;;;;;5071147;28;20091;-77
2022/06/21 01:09:01;;;;;;;4.85;2.10;;;19.30;71.20;;;;;;5070711;28;19911;-78
2022/06/21 01:11:32;;;;;;;4.35;1.77;;;19.30;70.50;;;;;;5072019;28;20059;-78
2022/06/21 01:13:58;;;;;;;4.95;1.92;;;19.30;70.30;;;;;;5070502;28;20024;-78
2022/06/21 01:16:26;;;;;;;6.82;2.15;;;19.30;70.20;;;;;;5071892;28;20105;-78
2022/06/21 01:18:52;;;;;;;5.30;2.08;;;19.20;69.90;;;;;;5070726;28;20056;-78
2022/06/21 01:21:20;;;;;;;6.28;2.00;;;19.20;69.50;;;;;;5054352;28;20465;-77
2022/06/21 01:23:57;;;;;;;4.63;1.98;;;19.20;69.60;;;;;;5070412;28;20024;-76
2022/06/21 01:26:41;;;;;;;5.65;1.92;;;19.20;69.80;;;;;;5051981;28;20032;-77
2022/06/21 01:29:13;;;;;;;5.60;2.20;;;19.20;69.50;;;;;;5050562;28;20032;-79
2022/06/21 01:31:39;;;;;;;4.88;2.08;;;19.10;69.70;;;;;;5050486;28;20024;-78
2022/06/21 01:34:12;;;;;;;6.30;2.42;;;19.10;69.20;;;;;;5050121;28;20021;-77
2022/06/21 01:36:38;;;;;;;6.63;2.10;;;19.10;69.60;;;;;;5068118;28;20036;-76
2022/06/21 01:39:07;;;;;;;5.28;2.00;;;19.10;69.30;;;;;;5070430;28;20065;-77
2022/06/21 01:41:43;;;;;;;4.40;1.77;;;19.10;68.90;;;;;;5075353;28;20023;-78
2022/06/21 01:44:14;;;;;;;5.25;2.17;;;19.10;68.90;;;;;;5075113;28;20024;-76
2022/06/21 01:46:39;;;;;;;3.88;1.70;;;19.00;68.90;;;;;;5074273;28;20028;-78
2022/06/21 01:49:12;;;;;;;5.35;1.80;;;19.00;68.80;;;;;;5074014;28;20095;-80
2022/06/21 01:51:43;;;;;;;5.68;1.83;;;19.00;69.50;;;;;;5073972;28;20029;-76
2022/06/21 01:54:13;;;;;;;4.20;1.77;;;19.10;70.40;;;;;;5073613;28;20078;-76
2022/06/21 01:56:40;;;;;;;4.93;1.83;;;19.10;69.80;;;;;;5075217;28;20025;-76
2022/06/21 01:59:14;;;;;;;5.05;1.90;;;19.10;70.30;;;;;;5075503;28;20016;-78
2022/06/21 02:02:03;;;;;;;6.53;2.03;;;19.10;69.30;;;;;;5074030;28;20512;-80
2022/06/21 02:04:34;;;;;;;4.60;1.85;;;19.10;68.70;;;;;;5073429;28;20139;-77
2022/06/21 02:07:04;;;;;;;5.45;1.80;;;19.10;68.30;;;;;;5073814;28;20029;-77
2022/06/21 02:09:36;;;;;;;5.75;1.90;;;19.10;68.30;;;;;;5075058;28;20118;-78
2022/06/21 02:12:11;;;;;;;5.80;1.85;;;19.10;68.40;;;;;;5075001;28;20025;-77
2022/06/21 02:14:53;;;;;;;6.28;1.98;;;19.10;68.90;;;;;;5073294;28;20032;-76
2022/06/21 02:17:34;;;;;;;4.70;1.92;;;19.00;68.80;;;;;;5057182;28;20100;-77
2022/06/21 02:20:16;;;;;;;5.15;1.90;;;19.00;68.60;;;;;;5073418;28;20021;-78
2022/06/21 02:22:42;;;;;;;5.72;2.00;;;19.00;69.10;;;;;;5074904;28;20017;-77
2022/06/21 02:25:15;;;;;;;6.22;2.22;;;19.00;68.80;;;;;;5073102;28;20599;-79
2022/06/21 02:27:41;;;;;;;5.30;1.95;;;19.00;69.10;;;;;;5073484;28;20020;-78
2022/06/21 02:30:17;;;;;;;5.05;1.92;;;19.00;68.90;;;;;;5074885;28;20487;-76
2022/06/21 02:32:43;;;;;;;6.65;2.10;;;19.00;69.30;;;;;;5073396;28;20032;-78
2022/06/21 02:35:16;;;;;;;5.53;2.05;;;18.90;69.00;;;;;;5078927;28;20389;-81
2022/06/21 02:37:43;;;;;;;5.63;2.33;;;18.90;69.00;;;;;;5083143;28;20079;-81
2022/06/21 02:40:32;;;;;;;6.10;2.13;;;18.90;69.00;;;;;;5083563;28;20035;-82
2022/06/21 02:43:05;;;;;;;6.32;1.90;;;18.90;69.10;;;;;;5070128;28;20525;-81
2022/06/21 02:45:55;;;;;;;5.55;2.00;;;18.90;70.20;;;;;;5063616;28;20484;-83
2022/06/21 02:48:30;;;;;;;6.23;2.00;;;19.00;70.50;;;;;;5082033;28;20024;-80
2022/06/21 02:51:01;;;;;;;6.70;2.17;;;19.00;70.30;;;;;;5075764;28;20317;-81
2022/06/21 02:53:37;;;;;;;4.28;1.73;;;19.00;70.40;;;;;;5083665;28;20029;-84
2022/06/21 02:56:12;;;;;;;7.07;2.17;;;19.00;68.90;;;;;;5090099;28;20044;-80
2022/06/21 02:58:46;;;;;;;6.45;2.20;;;19.00;68.30;;;;;;5089545;28;20195;-82
2022/06/21 03:01:18;;;;;;;5.65;2.10;;;19.00;68.20;;;;;;5088407;28;20088;-84
2022/06/21 03:03:45;;;;;;;4.57;1.90;;;19.00;68.30;;;;;;5086999;28;20032;-83
2022/06/21 03:06:13;;;;;;;5.85;2.13;;;19.00;68.30;;;;;;5086664;28;20028;-81
2022/06/21 03:12:04;;;;;;;5.15;1.70;;;19.00;68.90;;;;;;5069966;28;20062;-82
2022/06/21 03:14:33;;;;;;;4.68;1.58;;;19.00;69.00;;;;;;5085324;28;20020;-81
2022/06/21 03:17:00;;;;;;;6.00;2.13;;;18.90;69.00;;;;;;5084349;28;20027;-81
2022/06/21 03:19:26;;;;;;;5.28;1.90;;;18.90;68.90;;;;;;5085710;28;20080;-81
2022/06/21 03:21:52;;;;;;;8.13;2.50;;;18.90;68.90;;;;;;5085100;28;20036;-83
2022/06/21 03:24:22;;;;;;;5.25;1.83;;;18.90;68.50;;;;;;5089478;28;20024;-81
2022/06/21 03:27:00;;;;;;;5.82;2.10;;;18.90;68.80;;;;;;5089073;28;20443;-83
2022/06/21 03:29:25;;;;;;;4.72;1.75;;;18.90;69.00;;;;;;5088311;28;20477;-83
2022/06/21 03:31:53;;;;;;;5.82;1.80;;;18.80;68.80;;;;;;5087215;28;20081;-81
2022/06/21 03:34:22;;;;;;;6.15;1.83;;;18.90;69.10;;;;;;5086518;28;20078;-82
2022/06/21 03:36:49;;;;;;;6.20;1.90;;;18.80;69.00;;;;;;5085974;28;20028;-81
2022/06/21 03:39:18;;;;;;;5.10;1.80;;;18.90;70.00;;;;;;5085396;28;20206;-81
2022/06/21 03:41:46;;;;;;;5.40;2.03;;;18.90;70.50;;;;;;5086441;28;20177;-84
2022/06/21 03:44:32;;;;;;;5.65;1.83;;;18.90;70.40;;;;;;5086018;28;20028;-84
2022/06/21 03:47:22;;;;;;;4.32;1.80;;;18.90;71.00;;;;;;5084418;28;20028;-80
2022/06/21 03:50:08;;;;;;;4.60;1.85;;;18.90;70.90;;;;;;5083502;28;20027;-80
2022/06/21 03:52:56;;;;;;;4.28;1.58;;;18.90;69.60;;;;;;5074536;28;20115;-81
2022/06/21 03:55:25;;;;;;;4.80;2.08;;;19.00;69.20;;;;;;5083925;28;20024;-80
2022/06/21 03:58:07;;;;;;;5.95;2.10;;;19.00;69.00;;;;;;5084691;28;20020;-80
2022/06/21 04:00:44;;;;;;;5.22;1.73;;;19.00;69.00;;;;;;5078135;28;20017;-81
2022/06/21 04:03:17;;;;;;;7.75;1.90;;;18.90;69.00;;;;;;5080926;28;20033;-83
2022/06/21 04:05:53;;;;;;;5.88;1.88;;;18.90;69.30;;;;;;5080840;28;20028;-81
2022/06/21 04:08:33;;;;;;;4.85;1.70;;;18.90;69.50;;;;;;5076886;28;20036;-80
2022/06/21 04:11:10;;;;;;;6.85;1.90;;;18.90;69.60;;;;;;5082384;28;20086;-80
2022/06/21 04:13:46;;;;;;;7.63;2.28;;;18.90;69.80;;;;;;5079938;28;20047;-81
2022/06/21 04:16:16;;;;;;;3.83;1.63;;;18.90;69.80;;;;;;5082017;28;20028;-82
2022/06/21 04:18:57;;;;;;;6.07;2.00;;;18.90;69.90;;;;;;5080236;28;20035;-81
2022/06/21 04:21:37;;;;;;;;;;;18.80;69.90;;;;;;5081595;28;20040;-80
2022/06/21 04:24:15;;;;;;;7.82;1.92;;;18.80;69.90;;;;;;5070839;28;20028;-80
2022/06/21 04:27:00;;;;;;;7.57;2.20;;;18.80;69.90;;;;;;5079233;28;20020;-81
2022/06/21 04:29:38;;;;;;;7.35;2.10;;;18.80;70.10;;;;;;5079578;28;20052;-82
2022/06/21 04:32:18;;;;;;;5.20;1.80;;;18.80;70.40;;;;;;5075243;28;20036;-81
2022/06/21 04:35:12;;;;;;;5.97;1.83;;;18.80;70.60;;;;;;5075024;28;20028;-79
2022/06/21 04:37:59;;;;;;;6.10;1.98;;;18.90;71.60;;;;;;5075362;28;20029;-82
2022/06/21 04:40:31;;;;;;;5.68;1.70;;;18.90;71.70;;;;;;5077766;28;20024;-83
2022/06/21 04:43:15;;;;;;;6.60;2.10;;;18.90;72.10;;;;;;5075481;28;20501;-80
2022/06/21 04:45:52;;;;;;;6.55;1.80;;;18.90;71.50;;;;;;5085878;28;20102;-81
2022/06/21 04:48:48;;;;;;;7.10;1.90;;;19.00;72.20;;;;;;5070692;28;20033;-82
2022/06/21 04:51:41;;;;;;;5.18;1.90;;;19.00;72.30;;;;;;5078909;28;20043;-81
2022/06/21 04:54:18;;;;;;;6.97;1.63;;;18.90;71.20;;;;;;5073329;28;20044;-80
2022/06/21 04:56:44;;;;;;;7.10;1.58;;;18.90;71.00;;;;;;5081061;28;20508;-79
2022/06/21 04:59:35;;;;;;;14.65;2.53;;;18.90;70.90;;;;;;5077716;28;20023;-82
2022/06/21 05:02:02;;;;;;;14.30;2.60;;;18.80;71.50;;;;;;5072528;28;20029;-81
2022/06/21 05:04:40;;;;;;;11.93;2.30;;;18.80;72.70;;;;;;5072810;28;20470;-82
2022/06/21 05:07:26;;;;;;;11.48;2.10;;;18.80;73.30;;;;;;5053393;28;20088;-79
2022/06/21 05:09:54;;;;;;;7.38;1.90;;;18.80;73.00;;;;;;5057192;28;20055;-82
2022/06/21 05:12:35;;;;;;;9.38;2.00;;;18.80;73.40;;;;;;5061445;28;20054;-81
2022/06/21 05:15:13;;;;;;;7.82;1.95;;;18.90;73.60;;;;;;5057995;28;20398;-80
2022/06/21 05:17:41;;;;;;;9.98;1.85;;;18.90;73.60;;;;;;5057101;28;20034;-80
2022/06/21 05:20:15;;;;;;;45.58;5.15;;;19.00;73.40;;;;;;5061242;28;20049;-82
2022/06/21 05:22:46;;;;;;;34.58;3.85;;;19.00;76.70;;;;;;5057794;28;20017;-81
2022/06/21 05:25:28;;;;;;;25.95;4.05;;;19.10;76.60;;;;;;5057786;28;20397;-80
2022/06/21 05:27:58;;;;;;;20.15;3.42;;;19.10;76.40;;;;;;5051740;28;20028;-79
2022/06/21 05:30:47;;;;;;;20.20;3.20;;;19.30;76.20;;;;;;5045241;28;20026;-84
2022/06/21 05:33:34;;;;;;;18.00;2.87;;;19.40;75.70;;;;;;5048001;28;20030;-86
2022/06/21 05:36:08;;;;;;;18.67;3.00;;;19.40;76.10;;;;;;5055562;28;20028;-81
2022/06/21 05:38:45;;;;;;;14.80;2.88;;;19.60;75.30;;;;;;5063053;28;20140;-81
2022/06/21 05:41:31;;;;;;;17.38;2.88;;;19.60;75.10;;;;;;5053478;28;20025;-81
2022/06/21 05:44:36;;;;;;;15.20;2.97;;;19.70;74.80;;;;;;5060119;28;20029;-81
2022/06/21 05:47:18;;;;;;;14.27;2.85;;;19.90;74.50;;;;;;5063398;28;20021;-81
2022/06/21 05:49:43;;;;;;;11.52;2.40;;;19.90;74.00;;;;;;5066267;28;20025;-82
2022/06/21 05:52:44;;;;;;;12.93;2.28;;;19.90;73.70;;;;;;5065509;28;20029;-81
2022/06/21 05:55:16;;;;;;;13.80;2.53;;;20.00;73.40;;;;;;5052093;28;20033;-83
2022/06/21 05:57:51;;;;;;;;;;;20.10;73.40;;;;;;5055162;28;20034;-82
2022/06/21 06:00:39;;;;;;;11.25;2.50;;;20.10;72.90;;;;;;5055606;28;19909;-87
2022/06/21 06:03:20;;;;;;;12.57;2.25;;;20.20;73.00;;;;;;5048707;28;20105;-82
2022/06/21 06:05:47;;;;;;;10.60;2.33;;;20.20;72.70;;;;;;5045005;28;20052;-83
2022/06/21 06:08:25;;;;;;;8.88;2.13;;;20.20;72.40;;;;;;5046484;28;20030;-82
2022/06/21 06:10:53;;;;;;;10.30;2.45;;;20.20;72.50;;;;;;5065641;28;20029;-83
2022/06/21 06:13:26;;;;;;;9.43;2.33;;;20.10;72.90;;;;;;5062944;28;20030;-82
2022/06/21 06:15:55;;;;;;;7.78;2.30;;;20.00;73.30;;;;;;5050432;28;20036;-85
2022/06/21 06:18:26;;;;;;;9.65;2.28;;;19.90;73.70;;;;;;5060297;28;20050;-82
2022/06/21 06:21:10;;;;;;;10.63;2.60;;;19.80;73.90;;;;;;5056958;28;20028;-82
2022/06/21 06:23:43;;;;;;;9.27;2.17;;;19.80;74.10;;;;;;5048709;28;20402;-82
2022/06/21 06:26:18;;;;;;;12.13;2.47;;;19.70;73.70;;;;;;5058885;28;20021;-82
2022/06/21 06:28:57;;;;;;;12.98;2.88;;;19.60;73.70;;;;;;5046972;28;20037;-81
2022/06/21 06:31:34;;;;;;;9.27;2.35;;;19.70;72.80;;;;;;5059503;28;20029;-82
2022/06/21 06:34:08;;;;;;;8.32;1.98;;;19.80;72.60;;;;;;5056510;28;20029;-82
2022/06/21 06:36:40;;;;;;;11.63;2.10;;;19.80;72.60;;;;;;5065965;28;20070;-81
2022/06/21 06:39:23;;;;;;;8.63;2.08;;;19.80;72.60;;;;;;5063148;28;20485;-81
2022/06/21 06:41:59;;;;;;;10.43;2.28;;;19.80;72.90;;;;;;5064986;28;20029;-82
2022/06/21 06:44:30;;;;;;;10.13;2.15;;;19.80;73.00;;;;;;5049672;28;20051;-84
2022/06/21 06:46:59;;;;;;;7.63;2.08;;;19.70;73.30;;;;;;5056013;28;20033;-83
2022/06/21 06:49:41;;;;;;;9.23;1.90;;;19.70;73.50;;;;;;5066837;28;20029;-85
2022/06/21 06:52:26;;;;;;;8.30;1.88;;;19.60;73.60;;;;;;5046963;28;20025;-83
2022/06/21 06:55:22;;;;;;;9.60;1.90;;;19.60;73.80;;;;;;5061296;28;20032;-82
2022/06/21 06:57:58;;;;;;;5.95;2.03;;;19.60;74.00;;;;;;5054210;28;20045;-83
2022/06/21 07:00:37;;;;;;;6.85;1.70;;;19.60;74.10;;;;;;5049042;28;20510;-83
2022/06/21 07:03:19;;;;;;;9.73;1.98;;;19.50;73.80;;;;;;5044493;28;20037;-81
2022/06/21 07:06:02;;;;;;;7.10;1.85;;;19.50;73.60;;;;;;5045090;28;20056;-80
2022/06/21 07:08:43;;;;;;;9.18;1.80;;;19.50;73.50;;;;;;5045481;28;20029;-80
2022/06/21 07:11:44;;;;;;;9.55;2.10;;;19.50;73.50;;;;;;5045399;28;20075;-80
2022/06/21 07:14:20;;;;;;;8.38;2.33;;;19.50;73.60;;;;;;5045324;28;20033;-82
2022/06/21 07:16:49;;;;;;;6.82;1.83;;;19.40;73.50;;;;;;5044491;28;20033;-81
2022/06/21 07:19:15;;;;;;;5.57;1.70;;;19.50;73.50;;;;;;5044039;28;20028;-82
2022/06/21 07:21:41;;;;;;;7.82;1.73;;;19.50;73.40;;;;;;5063811;28;20020;-83
2022/06/21 07:24:26;;;;;;;6.72;1.90;;;19.50;73.50;;;;;;5067838;28;20079;-84
2022/06/21 07:27:03;;;;;;;6.45;1.90;;;19.60;73.50;;;;;;5048594;28;20446;-82
2022/06/21 07:29:47;;;;;;;8.32;2.28;;;19.60;73.40;;;;;;5047398;28;20025;-82
2022/06/21 07:32:18;;;;;;;8.27;1.80;;;19.60;73.30;;;;;;5046725;28;20049;-82
2022/06/21 07:34:52;;;;;;;6.25;1.98;;;19.50;73.30;;;;;;5043024;28;20025;-82
2022/06/21 07:37:47;;;;;;;6.93;1.67;;;19.50;73.50;;;;;;5045861;28;20022;-82
2022/06/21 07:40:28;;;;;;;7.28;1.83;;;19.50;73.70;;;;;;5072436;28;20042;-82
2022/06/21 07:43:12;;;;;;;8.60;2.08;;;19.50;73.80;;;;;;5044227;28;20033;-84
2022/06/21 07:45:44;;;;;;;7.32;1.75;;;19.40;73.90;;;;;;5043139;28;20089;-82
2022/06/21 07:48:37;;;;;;;8.05;1.80;;;19.40;73.90;;;;;;5043064;28;20026;-82
2022/06/21 07:51:08;;;;;;;6.53;1.80;;;19.40;73.70;;;;;;5042691;28;20097;-84
2022/06/21 07:53:59;;;;;;;9.33;1.90;;;19.40;73.60;;;;;;5041779;28;20040;-83
2022/06/21 07:56:34;;;;;;;8.30;2.10;;;19.40;73.50;;;;;;5041356;28;20306;-81
2022/06/21 07:59:04;;;;;;;6.47;1.73;;;19.40;73.40;;;;;;5041790;28;20028;-81
2022/06/21 08:07:24;;;;;;;6.95;2.38;;;19.40;73.40;;;;;;5042456;28;20512;-81
2022/06/21 08:10:01;;;;;;;7.82;2.00;;;19.50;73.20;;;;;;5041337;28;20638;-81
2022/06/21 08:12:27;;;;;;;6.28;2.10;;;19.50;72.90;;;;;;5040240;28;20032;-81
2022/06/21 08:14:53;;;;;;;6.85;2.10;;;19.60;72.70;;;;;;5041765;28;20034;-81
2022/06/21 08:17:43;;;;;;;6.57;1.70;;;19.60;72.20;;;;;;5040465;28;20025;-81
2022/06/21 08:20:15;;;;;;;6.57;2.20;;;19.70;71.90;;;;;;5042091;28;20053;-81
2022/06/21 08:22:57;;;;;;;7.38;1.80;;;19.70;72.20;;;;;;5039775;28;20021;-81
2022/06/21 08:25:40;;;;;;;5.65;1.70;;;19.80;71.30;;;;;;5039191;28;20048;-83
2022/06/21 08:28:19;;;;;;;7.60;1.98;;;19.80;70.90;;;;;;5072301;28;20021;-81
2022/06/21 08:30:50;;;;;;;4.88;1.65;;;19.80;71.00;;;;;;5073264;28;20563;-81
2022/06/21 08:33:45;;;;;;;6.10;2.03;;;19.80;70.80;;;;;;5040310;28;20041;-81
2022/06/21 08:36:16;;;;;;;6.35;1.77;;;19.80;70.70;;;;;;5023936;28;20029;-81
2022/06/21 08:38:53;;;;;;;;;;;19.80;70.20;;;;;;5039260;28;20087;-81
2022/06/21 08:41:54;;;;;;;5.88;1.67;;;19.80;69.70;;;;;;5039568;28;19912;-81
2022/06/21 08:47:57;;;;;;;6.53;1.80;;;19.90;69.00;;;;;;5049559;28;20036;-82
2022/06/21 08:50:57;;;;;;;8.38;2.30;;;19.90;68.90;;;;;;5048027;28;20037;-82
2022/06/21 08:53:41;;;;;;;;;;;19.90;69.50;;;;;;5047791;28;20033;-84
2022/06/21 08:56:22;;;;;;;8.27;2.50;;;19.90;69.20;;;;;;5046073;28;19905;-85
2022/06/21 08:59:26;;;;;;;5.85;2.10;;;19.90;68.70;;;;;;5046095;28;20033;-81
2022/06/21 09:02:23;;;;;;;8.15;2.08;;;19.90;68.50;;;;;;5047207;28;20030;-82
2022/06/21 09:04:55;;;;;;;7.00;2.10;;;20.00;68.10;;;;;;5044516;28;20041;-83
2022/06/21 09:07:35;;;;;;;;;;;20.00;69.00;;;;;;5046697;28;20040;-81
2022/06/21 09:10:18;;;;;;;8.73;2.33;;;20.10;68.70;;;;;;5044459;28;20289;-82
2022/06/21 09:13:11;;;;;;;6.38;1.92;;;20.00;68.70;;;;;;5045206;28;20077;-83
2022/06/21 09:15:46;;;;;;;5.43;1.75;;;20.10;68.90;;;;;;5043005;28;20033;-82
2022/06/21 09:18:26;;;;;;;5.70;1.88;;;20.10;69.10;;;;;;5076202;28;20045;-82
2022/06/21 09:21:09;;;;;;;7.57;2.00;;;20.20;69.30;;;;;;5044143;28;20033;-81
2022/06/21 09:23:42;;;;;;;6.13;1.80;;;20.20;69.10;;;;;;5042066;28;20402;-81
2022/06/21 09:26:31;;;;;;;5.93;2.17;;;20.20;69.50;;;;;;5043543;28;20403;-81
2022/06/21 09:29:58;;;;;;;5.78;1.90;;;20.10;69.70;;;;;;5041989;28;20049;-81
2022/06/21 09:32:48;;;;;;;6.30;1.60;;;20.20;69.60;;;;;;4984118;28;20427;-81
2022/06/21 09:35:28;;;;;;;6.68;1.80;;;20.20;69.70;;;;;;5042410;28;20089;-81
2022/06/21 09:38:01;;;;;;;6.20;1.83;;;20.20;69.70;;;;;;5040555;28;20022;-82
2022/06/21 09:40:31;;;;;;;6.95;1.73;;;20.20;69.30;;;;;;5049607;28;20017;-83
2022/06/21 09:43:23;;;;;;;4.75;1.60;;;20.20;69.50;;;;;;5050197;28;20043;-81
2022/06/21 09:46:25;;;;;;;5.80;1.88;;;20.20;68.80;;;;;;5047737;28;20030;-83
2022/06/21 09:49:03;;;;;;;5.50;1.80;;;20.20;68.90;;;;;;5046616;28;20155;-81
2022/06/21 09:52:03;;;;;;;6.80;1.70;;;20.20;68.60;;;;;;5078459;28;20033;-84
2022/06/21 09:54:36;;;;;;;6.43;1.70;;;20.30;68.60;;;;;;5043773;28;20032;-83
2022/06/21 09:57:13;;;;;;;7.57;1.88;;;20.30;68.30;;;;;;5057069;28;20029;-83
2022/06/21 09:59:54;;;;;;;8.32;1.77;;;20.30;67.80;;;;;;5063950;28;20021;-81
2022/06/21 10:02:40;;;;;;;5.40;1.65;;;20.30;68.10;;;;;;5064482;28;20025;-81
2022/06/21 10:05:19;;;;;;;6.05;1.88;;;20.30;68.10;;;;;;5064654;28;20044;-80
2022/06/21 10:08:35;;;;;;;6.18;1.70;;;20.40;67.80;;;;;;5064779;28;20037;-81
2022/06/21 10:11:28;;;;;;;6.28;1.63;;;20.40;67.60;;;;;;5032797;28;20040;-82
2022/06/21 10:14:14;;;;;;;6.20;1.85;;;20.40;67.80;;;;;;5071558;28;20294;-84
2022/06/21 10:16:57;;;;;;;8.00;1.92;;;20.40;67.80;;;;;;5086863;28;20455;-83
2022/06/21 10:19:50;;;;;;;6.03;1.52;;;20.30;68.20;;;;;;5071311;28;20021;-81
2022/06/21 10:22:34;;;;;;;6.30;1.63;;;20.40;68.00;;;;;;5069638;28;20025;-82
2022/06/21 10:25:32;;;;;;;5.55;1.70;;;20.40;67.50;;;;;;5069530;28;20063;-81
2022/06/21 10:28:23;;;;;;;7.40;1.70;;;20.30;67.50;;;;;;5085158;28;20120;-81
2022/06/21 10:31:07;;;;;;;6.88;1.70;;;20.30;67.60;;;;;;5067441;28;20025;-81
2022/06/21 10:34:06;;;;;;;5.22;1.60;;;20.40;68.00;;;;;;5066574;28;20045;-82
2022/06/21 10:36:50;;;;;;;5.60;1.50;;;20.30;67.40;;;;;;5066530;28;20048;-81
2022/06/21 10:39:40;;;;;;;6.45;1.55;;;20.40;65.90;;;;;;5068167;28;20488;-83
2022/06/21 10:42:46;;;;;;;6.70;1.70;;;20.40;65.10;;;;;;5067885;28;20025;-82
2022/06/21 10:45:37;;;;;;;5.25;1.58;;;20.40;65.40;;;;;;5064859;28;20493;-80
2022/06/21 10:48:08;;;;;;;;;;;20.40;65.40;;;;;;5082346;28;20028;-81
2022/06/21 10:50:42;;;;;;;4.47;1.45;;;20.40;64.90;;;;;;5064294;28;20016;-82
2022/06/21 10:53:46;;;;;;;6.93;1.65;;;20.40;64.40;;;;;;5064060;28;20053;-80
2022/06/21 10:59:14;;;;;;;5.03;1.40;;;20.40;64.00;;;;;;5065546;28;20082;-81
2022/06/21 11:01:57;;;;;;;6.05;1.83;;;20.50;64.30;;;;;;5063644;28;20017;-81
2022/06/21 11:04:48;;;;;;;6.53;1.58;;;20.50;64.60;;;;;;5062764;28;20115;-82
2022/06/21 11:07:24;;;;;;;7.45;1.92;;;20.50;65.00;;;;;;5062420;28;20028;-82
2022/06/21 11:09:56;;;;;;;5.57;1.65;;;20.50;64.40;;;;;;5062410;28;20029;-82
2022/06/21 11:12:56;;;;;;;5.38;1.38;;;20.50;64.90;;;;;;5064591;28;20036;-82
2022/06/21 11:15:47;;;;;;;5.32;1.70;;;20.40;65.60;;;;;;5061553;28;20029;-82
2022/06/21 11:18:26;;;;;;;5.45;1.63;;;20.40;65.60;;;;;;5078612;28;20083;-81
2022/06/21 11:21:16;;;;;;;6.88;2.10;;;20.40;64.40;;;;;;5063640;28;20021;-81
2022/06/21 11:24:01;;;;;;;8.73;1.60;;;20.50;64.30;;;;;;5063321;28;20506;-82
2022/06/21 11:26:31;;;;;;;3.60;1.38;;;20.40;63.90;;;;;;5062015;28;20039;-81
2022/06/21 11:29:22;;;;;;;6.22;1.63;;;20.40;64.00;;;;;;5062175;28;20028;-81
2022/06/21 11:31:55;;;;;;;6.65;1.70;;;20.40;64.00;;;;;;5060924;28;20573;-81
2022/06/21 11:35:04;;;;;;;4.25;1.50;;;20.40;63.80;;;;;;5063112;28;20029;-81
2022/06/21 11:38:07;;;;;;;6.40;1.70;;;20.40;64.60;;;;;;5078139;28;20050;-82
2022/06/21 11:40:35;;;;;;;4.40;1.40;;;20.40;64.10;;;;;;5077902;28;20029;-82
2022/06/21 11:43:04;;;;;;;5.10;1.40;;;20.40;64.10;;;;;;5061159;28;20017;-81
2022/06/21 11:45:43;;;;;;;3.90;1.70;;;20.40;63.50;;;;;;5061681;28;20025;-81
2022/06/21 11:48:46;;;;;;;5.50;1.63;;;20.40;64.10;;;;;;5062025;28;20049;-81
2022/06/21 11:51:30;;;;;;;6.60;2.10;;;20.40;64.60;;;;;;5076656;28;20045;-83
2022/06/21 11:54:18;;;;;;;4.80;1.73;;;20.40;64.30;;;;;;5063914;28;20037;-85
2022/06/21 11:56:52;;;;;;;6.03;1.70;;;20.40;64.10;;;;;;5070520;28;20024;-84
2022/06/21 11:59:30;;;;;;;5.28;1.67;;;20.40;63.70;;;;;;5067453;28;20393;-82
2022/06/21 12:02:14;;;;;;;6.80;1.80;;;20.40;64.10;;;;;;5065412;28;20029;-81
2022/06/21 12:04:53;;;;;;;5.68;2.10;;;20.40;65.00;;;;;;5054479;28;20029;-82
2022/06/21 12:07:22;;;;;;;6.90;1.88;;;20.30;64.60;;;;;;5065361;28;20493;-84
2022/06/21 12:09:55;;;;;;;4.38;1.60;;;20.30;64.70;;;;;;5065350;28;20409;-82
2022/06/21 12:12:58;;;;;;;5.45;1.70;;;20.30;65.50;;;;;;5059844;28;20017;-84
2022/06/21 12:15:50;;;;;;;5.22;1.50;;;20.30;64.80;;;;;;5060036;28;20035;-83
2022/06/21 12:18:20;;;;;;;7.82;2.22;;;20.20;65.00;;;;;;5079577;28;20037;-83
2022/06/21 12:21:04;;;;;;;5.72;1.77;;;20.20;64.90;;;;;;5065454;28;20029;-82
2022/06/21 12:23:41;;;;;;;6.85;1.88;;;20.20;64.50;;;;;;5068005;28;20029;-83
2022/06/21 12:26:11;;;;;;;6.95;1.90;;;20.20;65.30;;;;;;5066856;28;20491;-82
2022/06/21 12:28:39;;;;;;;5.50;1.80;;;20.20;64.10;;;;;;5066680;28;20059;-82
2022/06/21 12:31:21;;;;;;;6.63;1.60;;;20.20;64.30;;;;;;5068005;28;20285;-80
2022/06/21 12:33:52;;;;;;;5.78;1.70;;;20.10;64.00;;;;;;5065786;28;20009;-82
2022/06/21 12:36:33;;;;;;;5.43;1.95;;;20.20;64.60;;;;;;5062455;28;20060;-81
2022/06/21 12:39:04;;;;;;;5.50;1.80;;;20.20;64.30;;;;;;5065105;28;20032;-81
2022/06/21 12:41:46;;;;;;;7.22;1.85;;;20.20;64.20;;;;;;5064401;28;20052;-80
2022/06/21 12:44:47;;;;;;;7.40;1.63;;;20.20;64.20;;;;;;5056174;28;20033;-78
2022/06/21 12:47:32;;;;;;;6.00;1.88;;;20.30;64.40;;;;;;5030368;28;20037;-84
2022/06/21 12:50:26;;;;;;;5.40;1.67;;;20.30;64.40;;;;;;5048419;28;20042;-82
2022/06/21 12:53:23;;;;;;;5.63;1.50;;;20.30;64.60;;;;;;5056689;28;20040;-78
2022/06/21 12:56:27;;;;;;;5.63;1.60;;;20.30;65.10;;;;;;5056612;28;20524;-83
2022/06/21 12:59:19;;;;;;;7.05;2.10;;;20.20;65.80;;;;;;5058259;28;20053;-81
2022/06/21 13:02:22;;;;;;;4.43;1.63;;;20.20;65.80;;;;;;5049377;28;20091;-83
2022/06/21 13:05:29;;;;;;;6.18;1.60;;;20.20;66.60;;;;;;5049827;28;20033;-80
2022/06/21 13:08:33;;;;;;;5.65;1.92;;;20.20;66.90;;;;;;5013388;28;20025;-83
2022/06/21 13:11:25;;;;;;;4.25;1.38;;;20.20;66.90;;;;;;5062439;28;20024;-81
2022/06/21 13:14:28;;;;;;;6.55;1.50;;;20.10;67.30;;;;;;5061811;28;20044;-81
2022/06/21 13:17:27;;;;;;;4.22;1.60;;;20.10;66.90;;;;;;5060480;28;20041;-82
2022/06/21 13:20:20;;;;;;;4.97;1.65;;;20.10;66.80;;;;;;5059620;28;20079;-81
2022/06/21 13:22:54;;;;;;;6.25;1.70;;;20.10;66.90;;;;;;5061042;28;20021;-81
2022/06/21 13:25:48;;;;;;;4.63;1.50;;;20.10;67.00;;;;;;5060655;28;20025;-82
2022/06/21 13:28:45;;;;;;;7.13;1.67;;;20.10;67.10;;;;;;5059349;28;20044;-82
2022/06/21 13:31:32;;;;;;;5.47;1.60;;;20.10;67.60;;;;;;5059569;28;20101;-82
2022/06/21 13:34:04;;;;;;;4.63;1.45;;;20.10;67.50;;;;;;5059810;28;20025;-82
2022/06/21 13:36:45;;;;;;;5.20;1.67;;;20.10;67.40;;;;;;5061236;28;20021;-84
2022/06/21 13:39:43;;;;;;;5.35;1.60;;;20.10;67.20;;;;;;5070996;28;20084;-82
2022/06/21 13:42:37;;;;;;;4.70;1.60;;;20.20;67.60;;;;;;5072006;28;20017;-83
2022/06/21 13:45:32;;;;;;;6.20;1.70;;;20.20;67.80;;;;;;5070828;28;20421;-82
2022/06/21 13:48:16;;;;;;;3.97;1.42;;;20.20;68.00;;;;;;5071986;28;20029;-84
2022/06/21 13:51:08;;;;;;;3.88;1.40;;;20.10;67.90;;;;;;5071051;28;20039;-83
2022/06/21 13:53:54;;;;;;;4.53;1.50;;;20.10;67.30;;;;;;5069655;28;20076;-82
2022/06/21 13:56:26;;;;;;;4.55;1.50;;;20.10;66.80;;;;;;5069784;28;20025;-82
2022/06/21 13:58:59;;;;;;;4.18;1.58;;;20.10;65.90;;;;;;5069610;28;20516;-82
2022/06/21 14:01:33;;;;;;;6.28;1.45;;;20.10;65.60;;;;;;5070150;28;20032;-84
2022/06/21 14:04:21;;;;;;;4.30;1.67;;;20.10;65.90;;;;;;5067465;28;20048;-84
2022/06/21 14:07:05;;;;;;;6.55;1.60;;;20.10;66.40;;;;;;5067530;28;20036;-82